createdAt,value
2022-09-01T00:00:13.431Z,59.19
2022-09-01T00:03:01.208Z,59.21
2022-09-01T00:05:32.779Z,59.30
2022-09-01T00:08:00.668Z,59.47
2022-09-01T00:10:28.357Z,59.54
2022-09-01T00:12:56.246Z,59.62
2022-09-01T00:15:24.579Z,59.75
2022-09-01T00:17:53.021Z,59.86
2022-09-01T00:20:21.089Z,59.88
2022-09-01T00:22:49.643Z,60.03
2022-09-01T00:25:20.016Z,60.12
2022-09-01T00:27:49.253Z,60.16
2022-09-01T00:30:17.786Z,60.30
2022-09-01T00:32:46.828Z,60.39
2022-09-01T00:35:16.515Z,60.35
2022-09-01T00:37:44.815Z,60.38
2022-09-01T00:40:14.183Z,60.49
2022-09-01T00:42:43.004Z,60.54
2022-09-01T00:45:11.512Z,60.63
2022-09-01T00:47:39.581Z,60.73
2022-09-01T00:50:09.085Z,60.83
2022-09-01T00:52:43.709Z,60.89
2022-09-01T00:55:32.758Z,61.01
2022-09-01T00:58:01.591Z,61.10
2022-09-01T01:00:31.256Z,61.25
2022-09-01T01:02:59.369Z,61.27
2022-09-01T01:05:34.169Z,61.37
2022-09-01T01:08:03.075Z,61.47
2022-09-01T01:10:33.084Z,61.65
2022-09-01T01:13:04.760Z,61.64
2022-09-01T01:15:32.648Z,61.74
2022-09-01T01:18:00.509Z,61.71
2022-09-01T01:20:49.113Z,61.79
2022-09-01T01:23:24.984Z,61.90
2022-09-01T01:25:56.539Z,61.84
2022-09-01T01:28:33.386Z,62.04
2022-09-01T01:31:06.214Z,61.96
2022-09-01T01:33:41.583Z,62.03
2022-09-01T01:36:17.008Z,62.16
2022-09-01T01:38:49.220Z,62.14
2022-09-01T01:41:22.711Z,62.12
2022-09-01T01:43:51.121Z,62.21
2022-09-01T01:46:20.707Z,62.22
2022-09-01T01:48:52.453Z,62.39
2022-09-01T01:51:24.991Z,62.46
2022-09-01T01:53:53.499Z,62.41
2022-09-01T01:56:25.657Z,62.58
2022-09-01T01:58:56.425Z,62.62
2022-09-01T02:01:25.871Z,62.67
2022-09-01T02:03:54.754Z,62.86
2022-09-01T02:06:25.023Z,62.94
2022-09-01T02:08:58.058Z,63.04
2022-09-01T02:11:26.597Z,62.95
2022-09-01T02:13:57.220Z,63.08
2022-09-01T02:16:28.115Z,63.07
2022-09-01T02:18:57.122Z,63.14
2022-09-01T02:21:27.073Z,63.14
2022-09-01T02:24:02.194Z,63.26
2022-09-01T02:26:38.566Z,63.25
2022-09-01T02:29:10.077Z,63.42
2022-09-01T02:31:40.494Z,63.53
2022-09-01T02:34:13.969Z,63.47
2022-09-01T02:36:50.043Z,63.52
2022-09-01T02:39:30.379Z,63.41
2022-09-01T02:41:58.518Z,63.67
2022-09-01T02:44:31.029Z,63.61
2022-09-01T02:47:00.973Z,63.81
2022-09-01T02:49:30.026Z,64.00
2022-09-01T02:52:01.824Z,63.94
2022-09-01T02:54:32.626Z,63.97
2022-09-01T02:57:01.591Z,64.00
2022-09-01T02:59:31.078Z,63.95
2022-09-01T03:02:01.152Z,63.91
2022-09-01T03:04:34.834Z,63.94
2022-09-01T03:07:05.151Z,64.06
2022-09-01T03:09:32.898Z,64.19
2022-09-01T03:12:00.764Z,64.09
2022-09-01T03:14:30.038Z,64.12
2022-09-01T03:17:00.601Z,64.24
2022-09-01T03:19:32.274Z,64.29
2022-09-01T03:22:00.240Z,64.32
2022-09-01T03:24:30.838Z,64.49
2022-09-01T03:26:58.579Z,64.50
2022-09-01T03:29:26.313Z,64.54
2022-09-01T03:31:55.130Z,64.66
2022-09-01T03:34:23.656Z,64.67
2022-09-01T03:36:54.487Z,64.53
2022-09-01T03:39:28.335Z,64.63
2022-09-01T03:41:58.099Z,64.59
2022-09-01T03:44:26.505Z,64.87
2022-09-01T03:46:54.251Z,64.90
2022-09-01T03:49:25.299Z,64.90
2022-09-01T03:51:58.481Z,64.96
2022-09-01T03:54:30.240Z,64.97
2022-09-01T03:56:59.884Z,65.13
2022-09-01T03:59:28.507Z,65.21
2022-09-01T04:01:58.525Z,65.26
2022-09-01T04:04:26.793Z,65.27
2022-09-01T04:06:55.270Z,65.27
2022-09-01T04:09:23.158Z,65.43
2022-09-01T04:11:51.654Z,65.37
2022-09-01T04:14:20.404Z,65.46
2022-09-01T04:17:08.460Z,65.61
2022-09-01T04:19:39.282Z,65.72
2022-09-01T04:22:08.085Z,65.64
2022-09-01T04:24:46.172Z,65.76
2022-09-01T04:27:15.383Z,65.94
2022-09-01T04:29:46.535Z,65.89
2022-09-01T04:32:15.839Z,65.86
2022-09-01T04:34:48.972Z,65.97
2022-09-01T04:37:21.144Z,65.87
2022-09-01T04:39:56.838Z,66.00
2022-09-01T04:42:29.597Z,65.99
2022-09-01T04:45:02.074Z,65.92
2022-09-01T04:47:42.225Z,66.03
2022-09-01T04:50:14.908Z,66.09
2022-09-01T04:52:48.135Z,66.12
2022-09-01T04:55:29.905Z,66.11
2022-09-01T04:58:00.042Z,66.08
2022-09-01T05:00:32.314Z,66.15
2022-09-01T05:03:06.053Z,66.11
2022-09-01T05:06:01.194Z,66.06
2022-09-01T05:08:32.925Z,65.99
2022-09-01T05:11:08.450Z,65.92
2022-09-01T05:13:45.448Z,65.91
2022-09-01T05:16:15.891Z,65.89
2022-09-01T05:18:48.980Z,65.76
2022-09-01T05:21:22.550Z,65.74
2022-09-01T05:23:51.910Z,65.71
2022-09-01T05:26:29.976Z,65.68
2022-09-01T05:29:00.555Z,65.49
2022-09-01T05:31:37.842Z,65.40
2022-09-01T05:34:09.578Z,65.42
2022-09-01T05:36:42.747Z,65.27
2022-09-01T05:39:14.811Z,65.12
2022-09-01T05:41:43.969Z,65.06
2022-09-01T05:44:14.091Z,64.98
2022-09-01T05:46:44.571Z,65.02
2022-09-01T05:49:16.199Z,65.01
2022-09-01T05:51:50.778Z,64.81
2022-09-01T05:54:23.470Z,64.76
2022-09-01T05:56:53.515Z,64.51
2022-09-01T05:59:26.057Z,64.61
2022-09-01T06:01:59.294Z,64.62
2022-09-01T06:04:27.963Z,64.51
2022-09-01T06:07:05.975Z,64.45
2022-09-01T06:09:44.622Z,64.30
2022-09-01T06:12:23.111Z,64.20
2022-09-01T06:14:53.731Z,63.93
2022-09-01T06:17:25.153Z,63.97
2022-09-01T06:19:56.207Z,63.88
2022-09-01T06:22:26.819Z,63.70
2022-09-01T06:25:01.102Z,63.49
2022-09-01T06:27:34.529Z,63.32
2022-09-01T06:30:02.930Z,63.17
2022-09-01T06:32:35.397Z,63.18
2022-09-01T06:35:04.122Z,62.87
2022-09-01T06:37:34.580Z,62.84
2022-09-01T06:52:11.857Z,61.21
2022-09-01T06:54:41.517Z,60.88
2022-09-01T06:59:57.819Z,60.75
2022-09-01T07:02:27.106Z,60.60
2022-09-01T07:08:19.841Z,59.92
2022-09-01T07:14:16.563Z,59.52
2022-09-01T07:16:51.835Z,58.99
2022-09-01T07:19:51.524Z,59.06
2022-09-01T07:22:38.299Z,58.67
2022-09-01T07:28:10.350Z,58.14
2022-09-01T07:30:48.864Z,57.89
2022-09-01T07:36:29.543Z,57.19
2022-09-01T07:42:31.579Z,58.47
2022-09-01T07:45:26.939Z,56.39
2022-09-01T07:48:03.515Z,56.37
2022-09-01T07:53:34.556Z,55.60
2022-09-01T07:56:09.720Z,55.45
2022-09-01T07:58:42.213Z,55.11
2022-09-01T08:01:13.325Z,54.91
2022-09-01T08:03:42.324Z,54.77
2022-09-01T08:06:13.716Z,54.42
2022-09-01T08:08:42.383Z,54.28
2022-09-01T08:11:10.144Z,53.72
2022-09-01T08:13:41.779Z,53.77
2022-09-01T08:16:18.585Z,53.45
2022-09-01T08:18:49.350Z,52.88
2022-09-01T08:21:52.546Z,52.78
2022-09-01T08:24:26.513Z,52.32
2022-09-01T08:26:54.227Z,51.84
2022-09-01T08:29:21.905Z,51.40
2022-09-01T08:31:50.871Z,51.02
2022-09-01T08:34:19.820Z,50.67
2022-09-01T08:36:48.527Z,50.57
2022-09-01T08:39:16.567Z,50.78
2022-09-01T08:42:01.732Z,50.37
2022-09-01T08:44:34.830Z,48.70
2022-09-01T08:47:07.181Z,48.03
2022-09-01T08:49:44.362Z,47.23
2022-09-01T08:52:39.555Z,45.01
2022-09-01T08:55:25.981Z,43.56
2022-09-01T08:57:59.907Z,40.94
2022-09-01T09:00:57.895Z,38.99
2022-09-01T09:03:51.627Z,38.99
2022-09-01T09:06:26.536Z,38.54
2022-09-01T09:08:58.090Z,38.51
2022-09-01T09:11:45.836Z,38.20
2022-09-01T09:14:32.042Z,38.22
2022-09-01T09:17:00.440Z,38.30
2022-09-01T09:19:34.323Z,38.35
2022-09-01T09:22:06.011Z,38.91
2022-09-01T09:24:52.489Z,39.31
2022-09-01T09:27:29.548Z,39.90
2022-09-01T09:30:05.692Z,40.16
2022-09-01T09:33:24.897Z,40.75
2022-09-01T09:35:46.679Z,41.03
2022-09-01T09:38:28.470Z,41.27
2022-09-01T09:44:01.180Z,42.03
2022-09-01T09:46:32.004Z,39.97
2022-09-01T09:49:13.822Z,38.03
2022-09-01T09:51:44.783Z,36.06
2022-09-01T09:54:15.830Z,34.29
2022-09-01T09:56:46.396Z,32.40
2022-09-01T09:59:39.845Z,30.20
2022-09-01T10:02:33.233Z,27.45
2022-09-01T10:05:22.020Z,25.37
2022-09-01T10:07:50.070Z,22.98
2022-09-01T10:10:57.579Z,20.63
2022-09-01T10:13:31.458Z,18.88
2022-09-01T10:16:05.043Z,18.43
2022-09-01T10:18:39.043Z,18.20
2022-09-01T10:21:16.648Z,18.44
2022-09-01T10:23:44.967Z,18.49
2022-09-01T10:26:19.493Z,18.95
2022-09-01T10:28:56.078Z,19.50
2022-09-01T10:31:29.402Z,19.87
2022-09-01T10:34:02.854Z,19.94
2022-09-01T10:36:35.945Z,19.40
2022-09-01T10:39:08.753Z,18.44
2022-09-01T10:41:48.232Z,18.12
2022-09-01T10:44:22.669Z,17.84
2022-09-01T10:46:51.592Z,18.17
2022-09-01T10:49:46.803Z,18.08
2022-09-01T10:52:43.726Z,17.70
2022-09-01T10:55:32.546Z,17.14
2022-09-01T10:59:30.326Z,16.89
2022-09-01T11:03:53.383Z,16.78
2022-09-01T11:07:11.699Z,17.28
2022-09-01T11:09:39.789Z,17.28
2022-09-01T11:12:29.697Z,16.83
2022-09-01T11:15:02.039Z,16.48
2022-09-01T11:17:37.418Z,16.34
2022-09-01T11:20:36.784Z,15.81
2022-09-01T11:23:11.675Z,15.77
2022-09-01T11:25:43.846Z,15.98
2022-09-01T11:28:14.891Z,16.44
2022-09-01T11:30:55.342Z,16.83
2022-09-01T11:33:40.129Z,17.36
2022-09-01T11:36:20.381Z,17.60
2022-09-01T11:38:51.343Z,18.39
2022-09-01T11:41:33.981Z,18.74
2022-09-01T11:44:04.335Z,19.21
2022-09-01T11:46:33.714Z,19.50
2022-09-01T11:49:29.062Z,19.97
2022-09-01T11:51:57.826Z,20.27
2022-09-01T11:54:25.750Z,20.92
2022-09-01T11:56:53.602Z,20.78
2022-09-01T11:59:36.341Z,21.22
2022-09-01T12:02:04.289Z,21.51
2022-09-01T12:04:55.406Z,21.66
2022-09-01T12:07:39.205Z,22.28
2022-09-01T12:10:38.433Z,22.62
2022-09-01T12:13:12.996Z,23.19
2022-09-01T12:16:06.960Z,23.33
2022-09-01T12:18:41.695Z,23.77
2022-09-01T12:21:22.930Z,24.20
2022-09-01T12:23:50.900Z,24.27
2022-09-01T12:26:22.276Z,24.16
2022-09-01T12:28:50.912Z,24.20
2022-09-01T12:31:26.214Z,24.43
2022-09-01T12:33:56.046Z,24.49
2022-09-01T12:36:34.795Z,24.94
2022-09-01T12:39:17.716Z,25.14
2022-09-01T12:41:48.687Z,25.45
2022-09-01T12:44:38.407Z,25.78
2022-09-01T12:47:13.436Z,26.24
2022-09-01T12:49:48.073Z,26.46
2022-09-01T12:52:22.271Z,26.61
2022-09-01T12:55:11.931Z,26.85
2022-09-01T12:57:45.418Z,27.12
2022-09-01T13:00:20.697Z,27.41
2022-09-01T13:03:08.219Z,27.72
2022-09-01T13:05:42.389Z,28.02
2022-09-01T13:08:13.159Z,28.36
2022-09-01T13:10:43.601Z,28.56
2022-09-01T13:13:12.648Z,28.65
2022-09-01T13:16:12.686Z,28.92
2022-09-01T13:21:32.117Z,28.85
2022-09-01T13:24:00.686Z,29.10
2022-09-01T13:26:31.430Z,29.22
2022-09-01T13:29:00.126Z,29.21
2022-09-01T13:31:30.061Z,29.46
2022-09-01T13:34:21.804Z,29.60
2022-09-01T13:36:51.575Z,29.52
2022-09-01T13:39:22.806Z,29.49
2022-09-01T13:41:50.748Z,29.81
2022-09-01T13:44:18.821Z,29.88
2022-09-01T13:49:44.108Z,29.84
2022-09-01T13:52:13.284Z,29.85
2022-09-01T13:54:42.043Z,29.97
2022-09-01T13:57:11.676Z,29.89
2022-09-01T13:59:39.554Z,29.81
2022-09-01T14:02:07.822Z,29.99
2022-09-01T14:04:35.610Z,30.04
2022-09-01T14:07:03.942Z,30.44
2022-09-01T14:09:31.844Z,30.29
2022-09-01T14:11:59.576Z,30.48
2022-09-01T14:15:10.867Z,30.83
2022-09-01T14:17:15.869Z,30.43
2022-09-01T14:19:44.181Z,29.96
2022-09-01T14:22:12.598Z,29.95
2022-09-01T14:24:41.012Z,30.13
2022-09-01T14:27:09.216Z,30.17
2022-09-01T14:32:07.897Z,30.73
2022-09-01T14:34:36.292Z,30.73
2022-09-01T14:37:04.269Z,30.98
2022-09-01T14:39:32.428Z,31.21
2022-09-01T14:42:00.119Z,31.44
2022-09-01T14:44:27.785Z,31.62
2022-09-01T14:46:56.170Z,31.94
2022-09-01T14:49:23.870Z,31.97
2022-09-01T14:54:40.700Z,32.65
2022-09-01T14:59:56.274Z,32.68
2022-09-01T15:02:25.404Z,32.57
2022-09-01T15:04:52.964Z,32.43
2022-09-01T15:07:21.349Z,32.64
2022-09-01T15:09:49.819Z,32.38
2022-09-01T15:12:17.624Z,32.51
2022-09-01T15:14:45.690Z,32.53
2022-09-01T15:17:13.459Z,32.31
2022-09-01T15:19:41.210Z,32.53
2022-09-01T15:22:10.888Z,32.44
2022-09-01T15:24:38.797Z,32.36
2022-09-01T15:27:06.881Z,32.39
2022-09-01T15:29:34.935Z,32.54
2022-09-01T15:32:03.589Z,32.54
2022-09-01T15:34:31.900Z,32.83
2022-09-01T15:36:59.570Z,33.05
2022-09-01T15:39:34.866Z,33.24
2022-09-01T15:42:06.364Z,33.49
2022-09-01T15:44:35.806Z,33.48
2022-09-01T15:47:04.165Z,33.70
2022-09-01T15:49:31.828Z,33.80
2022-09-01T15:51:59.469Z,34.10
2022-09-01T15:54:30.486Z,34.38
2022-09-01T15:56:58.559Z,34.43
2022-09-01T15:59:26.486Z,34.60
2022-09-01T16:01:57.621Z,34.78
2022-09-01T16:04:27.917Z,34.94
2022-09-01T16:06:56.839Z,34.83
2022-09-01T16:09:26.765Z,35.12
2022-09-01T16:11:55.666Z,35.46
2022-09-01T16:14:23.795Z,35.58
2022-09-01T16:16:59.703Z,35.54
2022-09-01T16:19:45.901Z,35.79
2022-09-01T16:22:35.838Z,35.95
2022-09-01T16:25:23.602Z,36.15
2022-09-01T16:27:51.483Z,36.09
2022-09-01T16:30:23.472Z,36.42
2022-09-01T16:32:51.620Z,36.37
2022-09-01T16:35:24.266Z,36.46
2022-09-01T16:38:13.646Z,36.75
2022-09-01T16:40:56.463Z,36.72
2022-09-01T16:43:24.714Z,36.93
2022-09-01T16:46:12.556Z,37.02
2022-09-01T16:48:47.119Z,37.16
2022-09-01T16:51:27.973Z,37.17
2022-09-01T16:54:10.285Z,37.27
2022-09-01T16:56:58.462Z,37.38
2022-09-01T16:59:54.762Z,37.58
2022-09-01T17:02:38.579Z,37.70
2022-09-01T17:05:32.892Z,37.97
2022-09-01T17:08:23.948Z,38.00
2022-09-01T17:11:05.177Z,38.37
2022-09-01T17:13:40.167Z,38.32
2022-09-01T17:16:12.827Z,38.65
2022-09-01T17:18:44.402Z,38.69
2022-09-01T17:21:22.153Z,38.89
2022-09-01T17:24:13.973Z,39.21
2022-09-01T17:26:47.789Z,39.43
2022-09-01T17:29:23.285Z,39.54
2022-09-01T17:32:03.143Z,39.82
2022-09-01T17:34:56.463Z,40.03
2022-09-01T17:37:51.017Z,40.41
2022-09-01T17:40:23.970Z,40.66
2022-09-01T17:43:27.377Z,40.80
2022-09-01T17:46:14.244Z,41.14
2022-09-01T17:48:56.880Z,41.38
2022-09-01T17:51:27.469Z,41.62
2022-09-01T17:54:07.388Z,41.79
2022-09-01T17:57:09.201Z,42.03
2022-09-01T17:59:41.817Z,42.31
2022-09-01T18:02:42.124Z,42.62
2022-09-01T18:05:24.458Z,42.88
2022-09-01T18:08:17.754Z,43.10
2022-09-01T18:10:54.810Z,43.35
2022-09-01T18:13:42.493Z,43.50
2022-09-01T18:16:19.732Z,43.76
2022-09-01T18:18:49.040Z,43.99
2022-09-01T18:21:18.546Z,44.24
2022-09-01T18:23:49.111Z,44.51
2022-09-01T18:26:32.193Z,44.71
2022-09-01T18:29:01.664Z,45.01
2022-09-01T18:31:29.407Z,45.12
2022-09-01T18:34:34.738Z,45.30
2022-09-01T18:37:11.552Z,45.56
2022-09-01T18:39:53.661Z,45.70
2022-09-01T18:42:29.292Z,45.92
2022-09-01T18:45:05.272Z,46.17
2022-09-01T18:47:39.550Z,46.32
2022-09-01T18:50:55.782Z,46.53
2022-09-01T18:53:38.725Z,46.89
2022-09-01T18:56:31.466Z,47.01
2022-09-01T18:59:32.173Z,47.32
2022-09-01T19:02:47.639Z,47.50
2022-09-01T19:05:38.167Z,47.69
2022-09-01T19:08:27.642Z,47.90
2022-09-01T19:11:07.693Z,48.07
2022-09-01T19:13:53.402Z,48.18
2022-09-01T19:16:43.371Z,48.38
2022-09-01T19:19:13.824Z,48.54
2022-09-01T19:21:43.761Z,48.73
2022-09-01T19:24:17.259Z,48.89
2022-09-01T19:26:48.305Z,49.15
2022-09-01T19:29:21.382Z,49.32
2022-09-01T19:32:01.868Z,49.35
2022-09-01T19:34:36.881Z,49.59
2022-09-01T19:37:05.771Z,49.78
2022-09-01T19:39:44.481Z,49.81
2022-09-01T19:42:34.521Z,50.08
2022-09-01T19:45:07.864Z,50.22
2022-09-01T19:48:11.512Z,50.46
2022-09-01T19:50:59.769Z,50.75
2022-09-01T19:53:27.401Z,50.83
2022-09-01T19:56:04.739Z,50.96
2022-09-01T19:58:42.561Z,51.04
2022-09-01T20:01:15.943Z,51.24
2022-09-01T20:03:47.586Z,51.46
2022-09-01T20:09:22.787Z,51.78
2022-09-01T20:11:56.324Z,51.93
2022-09-01T20:14:33.136Z,52.14
2022-09-01T20:17:08.985Z,52.19
2022-09-01T20:19:44.946Z,52.32
2022-09-01T20:22:12.933Z,52.43
2022-09-01T20:24:40.674Z,52.51
2022-09-01T20:27:35.133Z,52.64
2022-09-01T20:30:10.958Z,52.79
2022-09-01T20:32:56.362Z,52.97
2022-09-01T20:35:35.176Z,53.10
2022-09-01T20:38:31.301Z,53.21
2022-09-01T20:41:03.834Z,53.40
2022-09-01T20:43:37.250Z,53.52
2022-09-01T20:46:05.260Z,53.51
2022-09-01T20:48:39.573Z,53.63
2022-09-01T20:51:11.782Z,53.75
2022-09-01T20:54:16.613Z,53.86
2022-09-01T20:56:59.573Z,54.18
2022-09-01T20:59:45.501Z,54.24
2022-09-01T21:02:42.673Z,54.39
2022-09-01T21:05:19.345Z,54.51
2022-09-01T21:08:25.954Z,54.63
2022-09-01T21:11:21.641Z,54.91
2022-09-01T21:14:04.701Z,54.84
2022-09-01T21:17:04.056Z,54.99
2022-09-01T21:19:56.454Z,55.25
2022-09-01T21:22:24.215Z,55.38
2022-09-01T21:24:52.625Z,55.34
2022-09-01T21:27:23.845Z,55.45
2022-09-01T21:30:21.001Z,55.54
2022-09-01T21:32:48.845Z,55.73
2022-09-01T21:35:18.907Z,55.84
2022-09-01T21:37:46.661Z,55.83
2022-09-01T21:40:15.676Z,56.04
2022-09-01T21:42:49.372Z,55.99
2022-09-01T21:45:18.837Z,56.25
2022-09-01T21:47:47.998Z,56.11
2022-09-01T21:50:17.528Z,56.37
2022-09-01T21:52:45.106Z,56.52
2022-09-01T21:55:13.413Z,56.70
2022-09-01T21:57:42.186Z,56.62
2022-09-01T22:00:14.582Z,56.81
2022-09-01T22:02:46.561Z,56.91
2022-09-01T22:05:14.625Z,56.93
2022-09-01T22:07:45.362Z,57.15
2022-09-01T22:10:22.346Z,57.08
2022-09-01T22:12:50.399Z,57.22
2022-09-01T22:15:21.416Z,57.42
2022-09-01T22:17:50.520Z,57.62
2022-09-01T22:20:22.351Z,57.76
2022-09-01T22:22:50.784Z,57.83
2022-09-01T22:25:20.802Z,57.91
2022-09-01T22:27:48.757Z,57.89
2022-09-01T22:30:16.799Z,57.99
2022-09-01T22:32:45.405Z,57.98
2022-09-01T22:35:14.356Z,58.09
2022-09-01T22:37:42.530Z,58.18
2022-09-01T22:40:11.754Z,58.06
2022-09-01T22:42:39.732Z,58.36
2022-09-01T22:45:08.472Z,58.40
2022-09-01T22:47:38.516Z,58.63
2022-09-01T22:50:08.870Z,58.62
2022-09-01T22:52:37.540Z,58.67
2022-09-01T22:55:06.007Z,58.78
2022-09-01T22:57:35.780Z,58.87
2022-09-01T23:00:08.894Z,59.00
2022-09-01T23:02:36.879Z,59.15
2022-09-01T23:05:06.074Z,59.10
2022-09-01T23:07:37.717Z,59.30
2022-09-01T23:10:08.723Z,59.41
2022-09-01T23:12:36.517Z,59.34
2022-09-01T23:15:05.545Z,59.47
2022-09-01T23:17:33.239Z,59.47
2022-09-01T23:20:02.271Z,59.48
2022-09-01T23:22:30.028Z,59.63
2022-09-01T23:24:57.769Z,59.62
2022-09-01T23:27:25.499Z,59.61
2022-09-01T23:29:53.217Z,59.70
2022-09-01T23:32:20.901Z,59.71
2022-09-01T23:34:48.579Z,59.73
2022-09-01T23:37:16.634Z,59.88
2022-09-01T23:39:44.454Z,60.00
2022-09-01T23:42:12.559Z,60.03
2022-09-01T23:44:40.348Z,60.21
2022-09-01T23:47:08.144Z,60.24
2022-09-01T23:49:35.829Z,60.20
2022-09-01T23:52:03.651Z,60.26
2022-09-01T23:54:31.516Z,60.21
2022-09-01T23:56:59.427Z,60.46
2022-09-01T23:59:28.767Z,60.42
